sensor_id;sensor_type;location;lat;lon;timestamp;pressure;altitude;pressure_sealevel;temperature;humidity
35694;BME280;21812;55.536;37.664;2022-09-30T00:00:57;99537.56;;;14.58;64.17
35694;BME280;21812;55.536;37.664;2022-09-30T00:03:23;99536.38;;;14.73;61.33
35694;BME280;21812;55.536;37.664;2022-09-30T00:06:03;99531.28;;;14.39;60.12
35694;BME280;21812;55.536;37.664;2022-09-30T00:08:29;99538.28;;;14.40;63.98
35694;BME280;21812;55.536;37.664;2022-09-30T00:13:32;99546.38;;;13.32;61.21
35694;BME280;21812;55.536;37.664;2022-09-30T00:15:59;99558.03;;;12.72;62.41
35694;BME280;21812;55.536;37.664;2022-09-30T00:18:26;99559.28;;;12.29;63.37
35694;BME280;21812;55.536;37.664;2022-09-30T00:20:52;99567.28;;;11.96;64.83
35694;BME280;21812;55.536;37.664;2022-09-30T00:23:19;99570.16;;;12.01;69.47
35694;BME280;21812;55.536;37.664;2022-09-30T00:25:44;99564.19;;;12.12;68.68
35694;BME280;21812;55.536;37.664;2022-09-30T00:28:10;99571.44;;;12.32;66.64
35694;BME280;21812;55.536;37.664;2022-09-30T00:30:35;99561.75;;;12.31;63.94
35694;BME280;21812;55.536;37.664;2022-09-30T00:33:01;99568.34;;;12.22;63.94
35694;BME280;21812;55.536;37.664;2022-09-30T00:35:27;99568.72;;;12.12;63.83
35694;BME280;21812;55.536;37.664;2022-09-30T00:37:52;99571.59;;;12.10;64.30
35694;BME280;21812;55.536;37.664;2022-09-30T00:40:20;99571.81;;;12.02;64.26
35694;BME280;21812;55.536;37.664;2022-09-30T00:42:45;99568.03;;;11.83;63.91
35694;BME280;21812;55.536;37.664;2022-09-30T00:45:12;99577.25;;;11.67;64.14
35694;BME280;21812;55.536;37.664;2022-09-30T00:53:05;99565.75;;;11.80;64.01
35694;BME280;21812;55.536;37.664;2022-09-30T00:55:34;99587.56;;;11.84;64.76
35694;BME280;21812;55.536;37.664;2022-09-30T00:58:04;99589.75;;;12.35;67.11
35694;BME280;21812;55.536;37.664;2022-09-30T01:00:31;99584.63;;;12.54;63.26
35694;BME280;21812;55.536;37.664;2022-09-30T01:02:56;99577.22;;;12.42;61.31
35694;BME280;21812;55.536;37.664;2022-09-30T01:05:24;99568.72;;;12.12;63.20
35694;BME280;21812;55.536;37.664;2022-09-30T01:07:52;99579.84;;;12.02;63.30
35694;BME280;21812;55.536;37.664;2022-09-30T01:10:18;99579.41;;;11.92;63.46
35694;BME280;21812;55.536;37.664;2022-09-30T01:12:43;99575.44;;;11.88;64.31
35694;BME280;21812;55.536;37.664;2022-09-30T01:15:09;99576.84;;;11.70;63.73
35694;BME280;21812;55.536;37.664;2022-09-30T01:31:39;99563.47;;;11.70;62.83
35694;BME280;21812;55.536;37.664;2022-09-30T01:37:23;99600.59;;;11.39;64.07
35694;BME280;21812;55.536;37.664;2022-09-30T01:40:10;99596.09;;;11.04;65.77
35694;BME280;21812;55.536;37.664;2022-09-30T01:48:21;99573.69;;;11.47;67.24
35694;BME280;21812;55.536;37.664;2022-09-30T01:50:55;99592.31;;;11.75;68.38
35694;BME280;21812;55.536;37.664;2022-09-30T01:56:17;99596.59;;;11.69;63.30
35694;BME280;21812;55.536;37.664;2022-09-30T01:58:53;99588.47;;;11.91;65.78
35694;BME280;21812;55.536;37.664;2022-09-30T02:01:28;99568.72;;;11.99;63.22
35694;BME280;21812;55.536;37.664;2022-09-30T02:04:04;99551.03;;;12.31;63.50
35694;BME280;21812;55.536;37.664;2022-09-30T02:06:36;99520.34;;;12.07;61.53
35694;BME280;21812;55.536;37.664;2022-09-30T02:11:40;99548.88;;;11.73;61.02
35694;BME280;21812;55.536;37.664;2022-09-30T02:14:20;99560.94;;;11.49;61.51
35694;BME280;21812;55.536;37.664;2022-09-30T02:20:00;99585.75;;;11.36;64.33
35694;BME280;21812;55.536;37.664;2022-09-30T02:22:37;99577.94;;;11.00;62.25
35694;BME280;21812;55.536;37.664;2022-09-30T02:25:11;99582.44;;;11.27;67.40
35694;BME280;21812;55.536;37.664;2022-09-30T02:27:42;99590.47;;;11.34;63.81
35694;BME280;21812;55.536;37.664;2022-09-30T02:30:11;99589.41;;;11.28;61.99
35694;BME280;21812;55.536;37.664;2022-09-30T02:32:54;99586.53;;;11.23;62.39
35694;BME280;21812;55.536;37.664;2022-09-30T02:35:25;99600.00;;;11.08;65.34
35694;BME280;21812;55.536;37.664;2022-09-30T02:38:00;99561.06;;;11.27;68.31
35694;BME280;21812;55.536;37.664;2022-09-30T02:43:06;99585.84;;;12.24;64.90
35694;BME280;21812;55.536;37.664;2022-09-30T02:45:47;99579.69;;;12.57;65.18
35694;BME280;21812;55.536;37.664;2022-09-30T02:48:44;99580.50;;;12.91;64.02
35694;BME280;21812;55.536;37.664;2022-09-30T02:53:49;99585.41;;;13.01;58.56
35694;BME280;21812;55.536;37.664;2022-09-30T02:58:45;99583.16;;;12.84;63.02
35694;BME280;21812;55.536;37.664;2022-09-30T03:01:13;99537.03;;;12.42;63.24
35694;BME280;21812;55.536;37.664;2022-09-30T03:03:49;99588.56;;;12.64;64.05
35694;BME280;21812;55.536;37.664;2022-09-30T03:06:16;99596.38;;;12.73;64.52
35694;BME280;21812;55.536;37.664;2022-09-30T03:08:42;99594.06;;;13.03;63.10
35694;BME280;21812;55.536;37.664;2022-09-30T03:11:14;99589.25;;;13.38;62.49
35694;BME280;21812;55.536;37.664;2022-09-30T03:19:46;99585.69;;;13.96;62.63
35694;BME280;21812;55.536;37.664;2022-09-30T03:31:27;99576.13;;;13.10;59.84
35694;BME280;21812;55.536;37.664;2022-09-30T03:33:39;99614.44;;;13.30;64.28
35694;BME280;21812;55.536;37.664;2022-09-30T03:36:19;99615.84;;;13.40;64.24
35694;BME280;21812;55.536;37.664;2022-09-30T03:39:00;99611.75;;;13.37;63.00
35694;BME280;21812;55.536;37.664;2022-09-30T03:44:11;99618.75;;;13.38;64.62
35694;BME280;21812;55.536;37.664;2022-09-30T03:46:44;99586.19;;;13.21;63.03
35694;BME280;21812;55.536;37.664;2022-09-30T03:49:15;99578.31;;;13.26;63.02
35694;BME280;21812;55.536;37.664;2022-09-30T03:51:44;99614.44;;;13.37;61.14
35694;BME280;21812;55.536;37.664;2022-09-30T03:54:12;99606.09;;;13.65;62.61
35694;BME280;21812;55.536;37.664;2022-09-30T03:56:39;99606.38;;;13.89;60.20
35694;BME280;21812;55.536;37.664;2022-09-30T03:59:12;99606.69;;;14.06;63.17
35694;BME280;21812;55.536;37.664;2022-09-30T04:01:41;99607.38;;;14.01;64.83
35694;BME280;21812;55.536;37.664;2022-09-30T04:04:07;99587.69;;;14.07;66.86
35694;BME280;21812;55.536;37.664;2022-09-30T04:06:33;99591.38;;;14.13;66.88
35694;BME280;21812;55.536;37.664;2022-09-30T04:08:59;99597.09;;;14.23;66.24
35694;BME280;21812;55.536;37.664;2022-09-30T04:11:24;99593.31;;;14.31;67.51
35694;BME280;21812;55.536;37.664;2022-09-30T04:13:50;99593.22;;;14.44;67.57
35694;BME280;21812;55.536;37.664;2022-09-30T04:16:15;99581.59;;;14.57;67.58
35694;BME280;21812;55.536;37.664;2022-09-30T04:18:41;99587.56;;;14.59;65.96
35694;BME280;21812;55.536;37.664;2022-09-30T04:21:09;99583.97;;;14.65;66.16
35694;BME280;21812;55.536;37.664;2022-09-30T04:23:36;99589.25;;;14.79;64.37
35694;BME280;21812;55.536;37.664;2022-09-30T04:26:04;99596.66;;;14.83;64.92
35694;BME280;21812;55.536;37.664;2022-09-30T04:28:30;99586.84;;;14.71;60.89
35694;BME280;21812;55.536;37.664;2022-09-30T04:31:00;99589.34;;;14.65;63.34
35694;BME280;21812;55.536;37.664;2022-09-30T04:33:26;99586.03;;;14.70;62.97
35694;BME280;21812;55.536;37.664;2022-09-30T04:35:54;99589.25;;;14.79;62.00
35694;BME280;21812;55.536;37.664;2022-09-30T04:38:20;99594.88;;;14.96;62.16
35694;BME280;21812;55.536;37.664;2022-09-30T04:40:46;99580.31;;;15.03;61.87
35694;BME280;21812;55.536;37.664;2022-09-30T04:43:15;99589.88;;;14.99;61.57
35694;BME280;21812;55.536;37.664;2022-09-30T04:45:43;99589.06;;;14.99;61.89
35694;BME280;21812;55.536;37.664;2022-09-30T04:48:09;99579.03;;;14.88;61.42
35694;BME280;21812;55.536;37.664;2022-09-30T04:50:35;99590.81;;;14.86;63.39
35694;BME280;21812;55.536;37.664;2022-09-30T04:53:01;99598.78;;;14.75;61.41
35694;BME280;21812;55.536;37.664;2022-09-30T04:55:28;99597.91;;;14.81;62.40
35694;BME280;21812;55.536;37.664;2022-09-30T04:57:54;99598.69;;;14.88;63.20
35694;BME280;21812;55.536;37.664;2022-09-30T05:00:20;99600.09;;;14.91;62.20
35694;BME280;21812;55.536;37.664;2022-09-30T05:02:46;99615.19;;;14.92;62.08
35694;BME280;21812;55.536;37.664;2022-09-30T05:05:12;99606.44;;;14.96;62.16
35694;BME280;21812;55.536;37.664;2022-09-30T05:07:38;99603.41;;;14.93;61.77
35694;BME280;21812;55.536;37.664;2022-09-30T05:10:04;99607.41;;;14.83;63.08
35694;BME280;21812;55.536;37.664;2022-09-30T05:12:30;99615.63;;;14.89;62.92
35694;BME280;21812;55.536;37.664;2022-09-30T05:14:56;99614.91;;;15.00;62.72
35694;BME280;21812;55.536;37.664;2022-09-30T05:17:22;99607.13;;;14.92;61.81
35694;BME280;21812;55.536;37.664;2022-09-30T05:19:47;99606.53;;;14.90;62.38
35694;BME280;21812;55.536;37.664;2022-09-30T05:22:13;99611.50;;;14.86;62.53
35694;BME280;21812;55.536;37.664;2022-09-30T05:24:39;99614.84;;;15.07;62.39
35694;BME280;21812;55.536;37.664;2022-09-30T05:27:05;99607.53;;;15.14;61.43
35694;BME280;21812;55.536;37.664;2022-09-30T05:29:32;99606.84;;;15.18;60.66
35694;BME280;21812;55.536;37.664;2022-09-30T05:31:57;99609.38;;;15.13;60.67
35694;BME280;21812;55.536;37.664;2022-09-30T05:34:23;99618.44;;;15.37;61.21
35694;BME280;21812;55.536;37.664;2022-09-30T05:36:49;99618.84;;;15.41;59.65
35694;BME280;21812;55.536;37.664;2022-09-30T05:39:14;99626.59;;;15.49;59.71
35694;BME280;21812;55.536;37.664;2022-09-30T05:41:40;99617.63;;;15.55;59.13
35694;BME280;21812;55.536;37.664;2022-09-30T05:44:11;99619.59;;;15.48;59.63
35694;BME280;21812;55.536;37.664;2022-09-30T05:46:36;99618.50;;;15.68;59.78
35694;BME280;21812;55.536;37.664;2022-09-30T05:49:02;99622.41;;;15.90;59.65
35694;BME280;21812;55.536;37.664;2022-09-30T05:51:27;99604.97;;;15.93;58.90
35694;BME280;21812;55.536;37.664;2022-09-30T05:53:53;99597.84;;;15.98;58.70
35694;BME280;21812;55.536;37.664;2022-09-30T05:56:19;99603.88;;;16.12;58.66
35694;BME280;21812;55.536;37.664;2022-09-30T05:58:44;99596.53;;;16.31;58.21
35694;BME280;21812;55.536;37.664;2022-09-30T06:01:13;99587.88;;;16.29;57.59
35694;BME280;21812;55.536;37.664;2022-09-30T06:03:41;99602.19;;;16.41;57.56
35694;BME280;21812;55.536;37.664;2022-09-30T06:06:07;99596.47;;;16.50;57.76
35694;BME280;21812;55.536;37.664;2022-09-30T06:08:33;99589.59;;;16.23;57.13
35694;BME280;21812;55.536;37.664;2022-09-30T06:10:58;99591.16;;;16.31;58.11
35694;BME280;21812;55.536;37.664;2022-09-30T06:13:25;99597.53;;;16.49;56.97
35694;BME280;21812;55.536;37.664;2022-09-30T06:15:58;99595.88;;;16.48;57.40
35694;BME280;21812;55.536;37.664;2022-09-30T06:18:25;99585.44;;;16.39;57.46
35694;BME280;21812;55.536;37.664;2022-09-30T06:20:54;99600.91;;;16.44;57.57
35694;BME280;21812;55.536;37.664;2022-09-30T06:23:20;99596.81;;;16.41;57.54
35694;BME280;21812;55.536;37.664;2022-09-30T06:25:52;99574.97;;;16.31;57.98
35694;BME280;21812;55.536;37.664;2022-09-30T06:28:18;99604.09;;;16.53;57.82
35694;BME280;21812;55.536;37.664;2022-09-30T06:30:45;99606.31;;;16.68;57.69
35694;BME280;21812;55.536;37.664;2022-09-30T06:33:12;99595.13;;;16.83;57.57
35694;BME280;21812;55.536;37.664;2022-09-30T06:35:38;99602.28;;;16.89;57.05
35694;BME280;21812;55.536;37.664;2022-09-30T06:38:07;99602.28;;;16.89;57.39
35694;BME280;21812;55.536;37.664;2022-09-30T06:40:32;99578.56;;;16.79;57.21
35694;BME280;21812;55.536;37.664;2022-09-30T06:42:59;99601.56;;;16.81;57.31
35694;BME280;21812;55.536;37.664;2022-09-30T06:45:25;99601.69;;;16.87;57.25
35694;BME280;21812;55.536;37.664;2022-09-30T06:47:55;99568.94;;;16.71;57.30
35694;BME280;21812;55.536;37.664;2022-09-30T06:50:21;99598.06;;;16.93;57.38
35694;BME280;21812;55.536;37.664;2022-09-30T06:52:47;99598.44;;;16.96;57.37
35694;BME280;21812;55.536;37.664;2022-09-30T06:55:12;99591.84;;;16.92;57.34
35694;BME280;21812;55.536;37.664;2022-09-30T06:57:39;99582.56;;;17.12;56.92
35694;BME280;21812;55.536;37.664;2022-09-30T07:00:06;99597.78;;;17.30;56.81
35694;BME280;21812;55.536;37.664;2022-09-30T07:02:31;99600.22;;;17.43;56.58
35694;BME280;21812;55.536;37.664;2022-09-30T07:04:58;99604.78;;;17.54;56.10
35694;BME280;21812;55.536;37.664;2022-09-30T07:07:24;99600.06;;;17.62;55.54
35694;BME280;21812;55.536;37.664;2022-09-30T07:09:50;99602.31;;;17.53;55.61
35694;BME280;21812;55.536;37.664;2022-09-30T07:12:15;99605.06;;;17.41;55.96
35694;BME280;21812;55.536;37.664;2022-09-30T07:14:41;99603.75;;;17.44;56.67
35694;BME280;21812;55.536;37.664;2022-09-30T07:17:07;99604.69;;;17.37;56.77
35694;BME280;21812;55.536;37.664;2022-09-30T07:19:33;99601.56;;;17.29;56.99
35694;BME280;21812;55.536;37.664;2022-09-30T07:21:58;99603.41;;;17.28;57.54
35694;BME280;21812;55.536;37.664;2022-09-30T07:24:44;99607.19;;;17.27;58.78
35694;BME280;21812;55.536;37.664;2022-09-30T07:27:10;99601.19;;;17.13;59.76
35694;BME280;21812;55.536;37.664;2022-09-30T07:29:39;99612.81;;;17.26;64.73
35694;BME280;21812;55.536;37.664;2022-09-30T07:32:06;99611.03;;;17.43;62.30
35694;BME280;21812;55.536;37.664;2022-09-30T07:34:32;99609.44;;;16.95;58.35
35694;BME280;21812;55.536;37.664;2022-09-30T07:36:57;99615.56;;;16.60;61.51
35694;BME280;21812;55.536;37.664;2022-09-30T07:39:26;99616.72;;;16.52;61.41
35694;BME280;21812;55.536;37.664;2022-09-30T07:41:52;99615.66;;;16.84;63.56
35694;BME280;21812;55.536;37.664;2022-09-30T07:44:18;99616.72;;;17.06;63.81
35694;BME280;21812;55.536;37.664;2022-09-30T07:46:44;99610.81;;;17.33;62.92
35694;BME280;21812;55.536;37.664;2022-09-30T07:49:15;99589.81;;;17.35;62.19
35694;BME280;21812;55.536;37.664;2022-09-30T07:51:51;99618.59;;;17.70;60.97
35694;BME280;21812;55.536;37.664;2022-09-30T07:54:21;99594.91;;;17.60;60.15
35694;BME280;21812;55.536;37.664;2022-09-30T07:56:48;99605.44;;;17.73;60.29
35694;BME280;21812;55.536;37.664;2022-09-30T07:59:14;99599.22;;;17.73;59.70
35694;BME280;21812;55.536;37.664;2022-09-30T08:01:40;99608.13;;;17.73;59.80
35694;BME280;21812;55.536;37.664;2022-09-30T08:04:09;99613.00;;;17.59;59.29
35694;BME280;21812;55.536;37.664;2022-09-30T08:06:43;99621.88;;;17.72;59.70
35694;BME280;21812;55.536;37.664;2022-09-30T08:09:11;99615.84;;;17.82;58.97
35694;BME280;21812;55.536;37.664;2022-09-30T08:11:38;99626.75;;;17.98;59.65
35694;BME280;21812;55.536;37.664;2022-09-30T08:14:04;99623.34;;;18.03;58.65
35694;BME280;21812;55.536;37.664;2022-09-30T08:16:30;99619.44;;;18.11;58.25
35694;BME280;21812;55.536;37.664;2022-09-30T08:19:00;99617.00;;;18.26;58.74
35694;BME280;21812;55.536;37.664;2022-09-30T08:21:27;99620.63;;;18.32;58.25
35694;BME280;21812;55.536;37.664;2022-09-30T08:23:54;99613.88;;;18.34;57.99
35694;BME280;21812;55.536;37.664;2022-09-30T08:26:20;99614.72;;;18.52;57.51
35694;BME280;21812;55.536;37.664;2022-09-30T08:28:46;99617.84;;;18.61;57.39
35694;BME280;21812;55.536;37.664;2022-09-30T08:31:15;99590.56;;;18.45;57.34
35694;BME280;21812;55.536;37.664;2022-09-30T08:33:41;99605.25;;;18.66;57.41
35694;BME280;21812;55.536;37.664;2022-09-30T08:36:12;99556.81;;;18.48;56.87
35694;BME280;21812;55.536;37.664;2022-09-30T08:38:40;99600.22;;;18.75;56.86
35694;BME280;21812;55.536;37.664;2022-09-30T08:46:50;99574.09;;;18.47;58.11
35694;BME280;21812;55.536;37.664;2022-09-30T08:51:59;99595.22;;;18.50;58.50
35694;BME280;21812;55.536;37.664;2022-09-30T08:54:29;99588.50;;;18.69;57.95
35694;BME280;21812;55.536;37.664;2022-09-30T08:56:56;99591.75;;;18.83;57.74
35694;BME280;21812;55.536;37.664;2022-09-30T08:59:36;99596.97;;;18.90;57.62
35694;BME280;21812;55.536;37.664;2022-09-30T09:02:17;99586.22;;;18.95;57.48
35694;BME280;21812;55.536;37.664;2022-09-30T09:04:47;99575.56;;;18.88;57.38
35694;BME280;21812;55.536;37.664;2022-09-30T09:20:58;99562.59;;;18.90;57.92
35694;BME280;21812;55.536;37.664;2022-09-30T09:23:29;99553.44;;;18.91;57.69
35694;BME280;21812;55.536;37.664;2022-09-30T09:25:57;99570.66;;;18.68;57.76
35694;BME280;21812;55.536;37.664;2022-09-30T09:28:33;99567.63;;;18.65;58.59
35694;BME280;21812;55.536;37.664;2022-09-30T09:31:02;99568.84;;;18.74;58.33
35694;BME280;21812;55.536;37.664;2022-09-30T09:33:31;99569.34;;;18.88;58.22
35694;BME280;21812;55.536;37.664;2022-09-30T09:41:45;99571.13;;;18.99;58.21
35694;BME280;21812;55.536;37.664;2022-09-30T09:44:26;99576.81;;;19.20;57.50
35694;BME280;21812;55.536;37.664;2022-09-30T09:49:36;99553.75;;;18.95;58.30
35694;BME280;21812;55.536;37.664;2022-09-30T09:54:39;99556.22;;;18.80;58.61
35694;BME280;21812;55.536;37.664;2022-09-30T09:57:07;99579.84;;;19.23;57.88
35694;BME280;21812;55.536;37.664;2022-09-30T09:59:37;99582.56;;;19.23;57.80
35694;BME280;21812;55.536;37.664;2022-09-30T10:02:30;99578.78;;;19.46;57.79
35694;BME280;21812;55.536;37.664;2022-09-30T10:04:56;99576.00;;;19.63;56.82
35694;BME280;21812;55.536;37.664;2022-09-30T10:07:32;99576.06;;;19.90;56.21
35694;BME280;21812;55.536;37.664;2022-09-30T10:10:18;99536.28;;;19.47;56.47
35694;BME280;21812;55.536;37.664;2022-09-30T10:12:45;99587.31;;;19.77;56.42
35694;BME280;21812;55.536;37.664;2022-09-30T10:15:19;99584.03;;;19.75;56.52
35694;BME280;21812;55.536;37.664;2022-09-30T10:17:57;99590.81;;;19.56;59.21
35694;BME280;21812;55.536;37.664;2022-09-30T10:20:32;99577.47;;;19.71;57.92
35694;BME280;21812;55.536;37.664;2022-09-30T10:23:07;99575.66;;;20.04;56.44
35694;BME280;21812;55.536;37.664;2022-09-30T10:25:33;99585.09;;;19.52;56.52
35694;BME280;21812;55.536;37.664;2022-09-30T10:28:01;99555.78;;;19.05;58.45
35694;BME280;21812;55.536;37.664;2022-09-30T10:33:24;99577.44;;;19.05;59.87
35694;BME280;21812;55.536;37.664;2022-09-30T10:35:55;99548.69;;;18.65;59.11
35694;BME280;21812;55.536;37.664;2022-09-30T10:38:24;99565.91;;;18.42;60.20
35694;BME280;21812;55.536;37.664;2022-09-30T10:40:51;99597.97;;;18.21;61.59
35694;BME280;21812;55.536;37.664;2022-09-30T10:43:33;99595.78;;;17.89;62.89
35694;BME280;21812;55.536;37.664;2022-09-30T10:46:02;99565.09;;;17.55;63.49
35694;BME280;21812;55.536;37.664;2022-09-30T10:48:33;99551.88;;;17.42;63.60
35694;BME280;21812;55.536;37.664;2022-09-30T10:50:59;99577.25;;;17.41;63.67
35694;BME280;21812;55.536;37.664;2022-09-30T10:53:27;99576.78;;;17.32;64.96
35694;BME280;21812;55.536;37.664;2022-09-30T10:55:55;99575.59;;;17.39;64.65
35694;BME280;21812;55.536;37.664;2022-09-30T11:01:35;99586.53;;;18.48;62.84
35694;BME280;21812;55.536;37.664;2022-09-30T11:06:36;99564.81;;;19.32;58.48
35694;BME280;21812;55.536;37.664;2022-09-30T11:09:32;99564.34;;;20.72;56.70
35694;BME280;21812;55.536;37.664;2022-09-30T11:12:13;99543.69;;;21.86;52.76
35694;BME280;21812;55.536;37.664;2022-09-30T11:14:48;99533.91;;;22.78;50.55
35694;BME280;21812;55.536;37.664;2022-09-30T11:20:17;99546.69;;;24.47;46.97
35694;BME280;21812;55.536;37.664;2022-09-30T11:23:18;99553.72;;;24.88;46.46
35694;BME280;21812;55.536;37.664;2022-09-30T11:39:42;99565.97;;;24.27;45.14
35694;BME280;21812;55.536;37.664;2022-09-30T11:42:25;99580.44;;;23.07;48.02
35694;BME280;21812;55.536;37.664;2022-09-30T11:45:33;99585.59;;;22.11;49.70
35694;BME280;21812;55.536;37.664;2022-09-30T11:53:33;99598.16;;;20.31;55.01
35694;BME280;21812;55.536;37.664;2022-09-30T11:56:11;99603.63;;;19.82;56.47
35694;BME280;21812;55.536;37.664;2022-09-30T11:58:46;99589.78;;;19.18;58.03
35694;BME280;21812;55.536;37.664;2022-09-30T12:01:19;99611.00;;;18.87;59.40
35694;BME280;21812;55.536;37.664;2022-09-30T12:03:53;99614.91;;;18.62;60.64
35694;BME280;21812;55.536;37.664;2022-09-30T12:06:31;99586.69;;;18.58;60.75
35694;BME280;21812;55.536;37.664;2022-09-30T12:09:03;99619.31;;;18.68;60.37
35694;BME280;21812;55.536;37.664;2022-09-30T12:14:04;99619.16;;;18.41;61.74
35694;BME280;21812;55.536;37.664;2022-09-30T12:16:36;99599.13;;;18.25;61.61
35694;BME280;21812;55.536;37.664;2022-09-30T12:19:44;99594.97;;;18.34;61.99
35694;BME280;21812;55.536;37.664;2022-09-30T12:22:10;99608.34;;;18.92;61.48
35694;BME280;21812;55.536;37.664;2022-09-30T12:24:37;99602.53;;;20.38;57.28
35694;BME280;21812;55.536;37.664;2022-09-30T12:27:24;99603.50;;;21.34;55.48
35694;BME280;21812;55.536;37.664;2022-09-30T12:30:11;99602.44;;;20.92;54.64
35694;BME280;21812;55.536;37.664;2022-09-30T12:41:27;99626.28;;;18.64;60.64
35694;BME280;21812;55.536;37.664;2022-09-30T12:49:44;99634.66;;;18.17;62.70
35694;BME280;21812;55.536;37.664;2022-09-30T12:52:17;99629.03;;;18.19;62.80
35694;BME280;21812;55.536;37.664;2022-09-30T12:54:55;99621.28;;;18.10;63.03
35694;BME280;21812;55.536;37.664;2022-09-30T12:57:32;99604.09;;;18.00;62.82
35694;BME280;21812;55.536;37.664;2022-09-30T13:00:15;99613.44;;;18.26;62.92
35694;BME280;21812;55.536;37.664;2022-09-30T13:02:57;99627.16;;;18.82;62.59
35694;BME280;21812;55.536;37.664;2022-09-30T13:10:33;99610.31;;;18.80;60.43
35694;BME280;21812;55.536;37.664;2022-09-30T13:13:25;99636.28;;;18.64;61.78
35694;BME280;21812;55.536;37.664;2022-09-30T13:15:55;99634.19;;;18.37;62.58
35694;BME280;21812;55.536;37.664;2022-09-30T13:23:38;99642.63;;;17.83;63.70
35694;BME280;21812;55.536;37.664;2022-09-30T13:31:28;99654.53;;;17.58;64.56
35694;BME280;21812;55.536;37.664;2022-09-30T13:36:31;99637.31;;;17.36;66.50
35694;BME280;21812;55.536;37.664;2022-09-30T13:39:06;99635.56;;;17.30;66.24
35694;BME280;21812;55.536;37.664;2022-09-30T13:41:43;99656.69;;;17.33;66.50
35694;BME280;21812;55.536;37.664;2022-09-30T13:44:19;99666.91;;;17.31;66.63
35694;BME280;21812;55.536;37.664;2022-09-30T13:46:52;99642.50;;;17.14;66.18
35694;BME280;21812;55.536;37.664;2022-09-30T13:51:58;99677.94;;;17.17;66.92
35694;BME280;21812;55.536;37.664;2022-09-30T13:54:30;99673.13;;;17.08;67.36
35694;BME280;21812;55.536;37.664;2022-09-30T13:57:02;99657.41;;;16.93;67.95
35694;BME280;21812;55.536;37.664;2022-09-30T14:02:16;99677.91;;;16.94;67.87
35694;BME280;21812;55.536;37.664;2022-09-30T14:04:58;99677.19;;;16.87;68.40
35694;BME280;21812;55.536;37.664;2022-09-30T14:10:31;99677.06;;;16.81;68.88
35694;BME280;21812;55.536;37.664;2022-09-30T14:16:17;99682.66;;;16.80;68.10
35694;BME280;21812;55.536;37.664;2022-09-30T14:19:05;99688.63;;;16.70;68.52
35694;BME280;21812;55.536;37.664;2022-09-30T14:21:36;99679.94;;;16.56;68.91
35694;BME280;21812;55.536;37.664;2022-09-30T14:32:26;99652.28;;;16.19;70.01
35694;BME280;21812;55.536;37.664;2022-09-30T14:34:57;99675.91;;;16.17;69.99
35694;BME280;21812;55.536;37.664;2022-09-30T14:37:29;99688.47;;;16.23;69.99
35694;BME280;21812;55.536;37.664;2022-09-30T14:39:56;99687.88;;;16.21;70.00
35694;BME280;21812;55.536;37.664;2022-09-30T14:44:53;99698.66;;;16.21;70.24
35694;BME280;21812;55.536;37.664;2022-09-30T14:47:20;99701.41;;;16.14;70.14
35694;BME280;21812;55.536;37.664;2022-09-30T14:49:47;99708.78;;;16.07;70.48
35694;BME280;21812;55.536;37.664;2022-09-30T14:52:47;99715.38;;;16.11;70.76
35694;BME280;21812;55.536;37.664;2022-09-30T14:55:29;99712.88;;;16.10;71.03
35694;BME280;21812;55.536;37.664;2022-09-30T15:03:33;99684.31;;;15.72;72.13
35694;BME280;21812;55.536;37.664;2022-09-30T15:05:59;99701.63;;;15.82;72.30
35694;BME280;21812;55.536;37.664;2022-09-30T15:08:25;99705.81;;;15.78;72.42
35694;BME280;21812;55.536;37.664;2022-09-30T15:10:53;99693.88;;;15.68;72.10
35694;BME280;21812;55.536;37.664;2022-09-30T15:13:26;99716.94;;;15.82;72.40
35694;BME280;21812;55.536;37.664;2022-09-30T15:15:53;99720.09;;;15.79;72.16
35694;BME280;21812;55.536;37.664;2022-09-30T15:18:39;99713.66;;;15.80;72.60
35694;BME280;21812;55.536;37.664;2022-09-30T15:21:10;99722.81;;;15.72;72.95
35694;BME280;21812;55.536;37.664;2022-09-30T15:23:39;99713.16;;;15.64;73.02
35694;BME280;21812;55.536;37.664;2022-09-30T15:26:06;99727.19;;;15.73;72.71
35694;BME280;21812;55.536;37.664;2022-09-30T15:28:35;99735.66;;;15.77;72.37
35694;BME280;21812;55.536;37.664;2022-09-30T15:31:02;99729.66;;;15.75;72.35
35694;BME280;21812;55.536;37.664;2022-09-30T15:33:29;99733.19;;;15.69;72.66
35694;BME280;21812;55.536;37.664;2022-09-30T15:36:05;99720.63;;;15.62;73.09
35694;BME280;21812;55.536;37.664;2022-09-30T15:38:33;99711.44;;;15.52;73.02
35694;BME280;21812;55.536;37.664;2022-09-30T15:43:43;99736.16;;;16.22;72.36
35694;BME280;21812;55.536;37.664;2022-09-30T15:46:29;99742.34;;;16.41;71.44
35694;BME280;21812;55.536;37.664;2022-09-30T15:49:01;99745.91;;;16.35;71.79
35694;BME280;21812;55.536;37.664;2022-09-30T15:53:57;99744.16;;;16.59;71.98
35694;BME280;21812;55.536;37.664;2022-09-30T15:59:19;99706.31;;;16.06;70.92
35694;BME280;21812;55.536;37.664;2022-09-30T16:01:49;99708.75;;;16.26;72.29
35694;BME280;21812;55.536;37.664;2022-09-30T16:17:24;99749.25;;;17.10;69.50
35694;BME280;21812;55.536;37.664;2022-09-30T16:19:51;99758.16;;;17.10;68.21
35694;BME280;21812;55.536;37.664;2022-09-30T16:22:33;99751.59;;;17.42;70.60
35694;BME280;21812;55.536;37.664;2022-09-30T16:25:26;99755.75;;;17.44;69.05
35694;BME280;21812;55.536;37.664;2022-09-30T16:28:13;99752.63;;;17.05;68.06
35694;BME280;21812;55.536;37.664;2022-09-30T16:30:44;99738.38;;;16.56;69.39
35694;BME280;21812;55.536;37.664;2022-09-30T16:33:12;99763.13;;;16.53;70.68
35694;BME280;21812;55.536;37.664;2022-09-30T16:35:40;99773.56;;;16.61;70.44
35694;BME280;21812;55.536;37.664;2022-09-30T16:38:11;99749.94;;;16.45;70.58
35694;BME280;21812;55.536;37.664;2022-09-30T16:40:37;99763.16;;;16.65;71.16